sensor_id;sensor_type;location;lat;lon;timestamp;pressure;altitude;pressure_sealevel;temperature;humidity
57606;BME280;43430;48.204;11.556;2022-10-28T00:01:09;96975.75;;;9.88;100.00
57606;BME280;43430;48.204;11.556;2022-10-28T00:03:42;96975.75;;;9.88;100.00
57606;BME280;43430;48.204;11.556;2022-10-28T00:06:10;96979.34;;;9.81;100.00
57606;BME280;43430;48.204;11.556;2022-10-28T00:08:36;96983.41;;;9.83;100.00
57606;BME280;43430;48.204;11.556;2022-10-28T00:11:16;96981.78;;;9.82;100.00
57606;BME280;43430;48.204;11.556;2022-10-28T00:13:42;96982.59;;;9.83;100.00
57606;BME280;43430;48.204;11.556;2022-10-28T00:18:38;96970.00;;;9.78;100.00
57606;BME280;43430;48.204;11.556;2022-10-28T00:21:08;96968.56;;;9.75;100.00
57606;BME280;43430;48.204;11.556;2022-10-28T00:23:34;96976.41;;;9.69;100.00
57606;BME280;43430;48.204;11.556;2022-10-28T00:26:11;96972.16;;;9.68;100.00
57606;BME280;43430;48.204;11.556;2022-10-28T00:28:42;96973.97;;;9.67;100.00
57606;BME280;43430;48.204;11.556;2022-10-28T00:31:09;96972.53;;;9.65;100.00
57606;BME280;43430;48.204;11.556;2022-10-28T00:33:35;96970.72;;;9.65;100.00
57606;BME280;43430;48.204;11.556;2022-10-28T00:36:12;96964.63;;;9.65;100.00
57606;BME280;43430;48.204;11.556;2022-10-28T00:38:39;96971.47;;;9.59;100.00
57606;BME280;43430;48.204;11.556;2022-10-28T00:41:05;96971.41;;;9.52;100.00
57606;BME280;43430;48.204;11.556;2022-10-28T00:43:46;96970.19;;;9.48;100.00
57606;BME280;43430;48.204;11.556;2022-10-28T00:46:29;96964.31;;;9.46;100.00
57606;BME280;43430;48.204;11.556;2022-10-28T00:49:01;96957.22;;;9.47;100.00
57606;BME280;43430;48.204;11.556;2022-10-28T00:51:29;96961.25;;;9.49;100.00
57606;BME280;43430;48.204;11.556;2022-10-28T00:53:56;96959.03;;;9.46;100.00
57606;BME280;43430;48.204;11.556;2022-10-28T00:56:23;96956.41;;;9.46;100.00
57606;BME280;43430;48.204;11.556;2022-10-28T00:58:50;96964.69;;;9.43;100.00
57606;BME280;43430;48.204;11.556;2022-10-28T01:01:19;96963.47;;;9.46;100.00
57606;BME280;43430;48.204;11.556;2022-10-28T01:03:44;96965.28;;;9.45;100.00
57606;BME280;43430;48.204;11.556;2022-10-28T01:06:11;96969.50;;;9.40;100.00
57606;BME280;43430;48.204;11.556;2022-10-28T01:08:37;96969.31;;;9.41;100.00
57606;BME280;43430;48.204;11.556;2022-10-28T01:11:20;96967.69;;;9.40;100.00
57606;BME280;43430;48.204;11.556;2022-10-28T01:27:55;96946.63;;;9.40;100.00
57606;BME280;43430;48.204;11.556;2022-10-28T01:30:26;96950.59;;;9.30;100.00
57606;BME280;43430;48.204;11.556;2022-10-28T01:33:37;96953.72;;;9.18;100.00
57606;BME280;43430;48.204;11.556;2022-10-28T01:35:52;96965.16;;;9.32;100.00
57606;BME280;43430;48.204;11.556;2022-10-28T01:38:49;96964.19;;;9.33;100.00
57606;BME280;43430;48.204;11.556;2022-10-28T01:41:23;96960.53;;;9.34;100.00
57606;BME280;43430;48.204;11.556;2022-10-28T01:44:21;96965.16;;;9.32;100.00
57606;BME280;43430;48.204;11.556;2022-10-28T01:47:02;96955.84;;;9.30;100.00
57606;BME280;43430;48.204;11.556;2022-10-28T01:52:13;96954.56;;;9.25;100.00
57606;BME280;43430;48.204;11.556;2022-10-28T01:54:44;96952.91;;;9.18;100.00
57606;BME280;43430;48.204;11.556;2022-10-28T01:57:13;96959.97;;;9.17;100.00
57606;BME280;43430;48.204;11.556;2022-10-28T01:59:40;96961.53;;;9.12;100.00
57606;BME280;43430;48.204;11.556;2022-10-28T02:02:06;96951.66;;;9.14;100.00
57606;BME280;43430;48.204;11.556;2022-10-28T02:04:31;96953.66;;;9.12;100.00
57606;BME280;43430;48.204;11.556;2022-10-28T02:06:58;96950.41;;;9.10;100.00
57606;BME280;43430;48.204;11.556;2022-10-28T02:12:24;96952.78;;;9.04;100.00
57606;BME280;43430;48.204;11.556;2022-10-28T02:15:13;96951.59;;;9.07;100.00
57606;BME280;43430;48.204;11.556;2022-10-28T02:26:25;96944.19;;;8.96;100.00
57606;BME280;43430;48.204;11.556;2022-10-28T02:29:05;96952.25;;;8.94;100.00
57606;BME280;43430;48.204;11.556;2022-10-28T02:31:54;96944.94;;;8.90;100.00
57606;BME280;43430;48.204;11.556;2022-10-28T02:34:29;96953.03;;;8.88;100.00
57606;BME280;43430;48.204;11.556;2022-10-28T02:36:57;96945.75;;;8.90;100.00
57606;BME280;43430;48.204;11.556;2022-10-28T02:39:29;96943.94;;;8.91;100.00
57606;BME280;43430;48.204;11.556;2022-10-28T02:42:00;96949.03;;;8.92;100.00
57606;BME280;43430;48.204;11.556;2022-10-28T02:44:30;96940.50;;;8.90;100.00
57606;BME280;43430;48.204;11.556;2022-10-28T02:47:01;96933.75;;;8.81;100.00
57606;BME280;43430;48.204;11.556;2022-10-28T02:49:31;96931.16;;;8.88;100.00
57606;BME280;43430;48.204;11.556;2022-10-28T02:52:02;96939.63;;;8.83;100.00
57606;BME280;43430;48.204;11.556;2022-10-28T02:54:38;96941.38;;;8.76;100.00
57606;BME280;43430;48.204;11.556;2022-10-28T02:57:11;96932.91;;;8.80;100.00
57606;BME280;43430;48.204;11.556;2022-10-28T02:59:37;96934.78;;;8.87;100.00
57606;BME280;43430;48.204;11.556;2022-10-28T03:02:03;96934.63;;;8.88;100.00
57606;BME280;43430;48.204;11.556;2022-10-28T03:04:29;96933.34;;;8.84;100.00
57606;BME280;43430;48.204;11.556;2022-10-28T03:06:54;96939.38;;;8.78;100.00
57606;BME280;43430;48.204;11.556;2022-10-28T03:09:20;96942.97;;;8.77;100.00
57606;BME280;43430;48.204;11.556;2022-10-28T03:11:45;96936.38;;;8.81;100.00
57606;BME280;43430;48.204;11.556;2022-10-28T03:14:10;96932.28;;;8.78;100.00
57606;BME280;43430;48.204;11.556;2022-10-28T03:16:36;96934.13;;;8.78;100.00
57606;BME280;43430;48.204;11.556;2022-10-28T03:19:01;96942.91;;;8.70;100.00
57606;BME280;43430;48.204;11.556;2022-10-28T03:21:26;96939.31;;;8.71;100.00
57606;BME280;43430;48.204;11.556;2022-10-28T03:23:52;96938.72;;;8.76;100.00
57606;BME280;43430;48.204;11.556;2022-10-28T03:26:17;96936.31;;;8.74;100.00
57606;BME280;43430;48.204;11.556;2022-10-28T03:28:42;96934.22;;;8.70;100.00
57606;BME280;43430;48.204;11.556;2022-10-28T03:31:08;96937.47;;;8.72;100.00
57606;BME280;43430;48.204;11.556;2022-10-28T03:33:33;96939.47;;;8.70;100.00
57606;BME280;43430;48.204;11.556;2022-10-28T03:35:58;96928.59;;;8.73;100.00
57606;BME280;43430;48.204;11.556;2022-10-28T03:38:24;96927.78;;;8.72;100.00
57606;BME280;43430;48.204;11.556;2022-10-28T03:40:49;96925.88;;;8.66;100.00
57606;BME280;43430;48.204;11.556;2022-10-28T03:43:16;96924.47;;;8.64;100.00
57606;BME280;43430;48.204;11.556;2022-10-28T03:45:42;96927.69;;;8.66;100.00
57606;BME280;43430;48.204;11.556;2022-10-28T03:48:07;96925.88;;;8.66;100.00
57606;BME280;43430;48.204;11.556;2022-10-28T03:50:33;96927.34;;;8.69;100.00
57606;BME280;43430;48.204;11.556;2022-10-28T03:52:58;96927.63;;;8.59;100.00
57606;BME280;43430;48.204;11.556;2022-10-28T03:55:24;96938.72;;;8.54;100.00
57606;BME280;43430;48.204;11.556;2022-10-28T03:57:50;96943.44;;;8.44;100.00
57606;BME280;43430;48.204;11.556;2022-10-28T04:00:16;96939.56;;;8.40;100.00
57606;BME280;43430;48.204;11.556;2022-10-28T04:02:41;96945.69;;;8.47;100.00
57606;BME280;43430;48.204;11.556;2022-10-28T04:05:07;96951.66;;;8.56;100.00
57606;BME280;43430;48.204;11.556;2022-10-28T04:07:33;96944.22;;;8.60;100.00
57606;BME280;43430;48.204;11.556;2022-10-28T04:09:58;96940.97;;;8.58;100.00
57606;BME280;43430;48.204;11.556;2022-10-28T04:12:24;96935.88;;;8.56;100.00
57606;BME280;43430;48.204;11.556;2022-10-28T04:14:49;96934.47;;;8.53;100.00
57606;BME280;43430;48.204;11.556;2022-10-28T04:17:14;96936.44;;;8.51;100.00
57606;BME280;43430;48.204;11.556;2022-10-28T04:19:40;96935.19;;;8.47;100.00
57606;BME280;43430;48.204;11.556;2022-10-28T04:22:05;96945.34;;;8.50;100.00
57606;BME280;43430;48.204;11.556;2022-10-28T04:24:32;96931.91;;;8.45;100.00
57606;BME280;43430;48.204;11.556;2022-10-28T04:26:57;96933.53;;;8.46;100.00
57606;BME280;43430;48.204;11.556;2022-10-28T04:29:23;96931.91;;;8.45;100.00
57606;BME280;43430;48.204;11.556;2022-10-28T04:31:48;96931.84;;;8.39;100.00
57606;BME280;43430;48.204;11.556;2022-10-28T04:34:13;96935.59;;;8.36;100.00
57606;BME280;43430;48.204;11.556;2022-10-28T04:36:39;96937.91;;;8.39;100.00
57606;BME280;43430;48.204;11.556;2022-10-28T04:39:04;96935.91;;;8.41;100.00
57606;BME280;43430;48.204;11.556;2022-10-28T04:41:29;96933.50;;;8.40;100.00
57606;BME280;43430;48.204;11.556;2022-10-28T04:43:55;96932.00;;;8.37;100.00
57606;BME280;43430;48.204;11.556;2022-10-28T04:46:23;96931.38;;;8.35;100.00
57606;BME280;43430;48.204;11.556;2022-10-28T04:48:48;96937.34;;;8.29;100.00
57606;BME280;43430;48.204;11.556;2022-10-28T04:51:14;96929.28;;;8.30;100.00
57606;BME280;43430;48.204;11.556;2022-10-28T04:53:39;96935.00;;;8.34;100.00
57606;BME280;43430;48.204;11.556;2022-10-28T04:56:05;96933.38;;;8.33;100.00
57606;BME280;43430;48.204;11.556;2022-10-28T04:58:30;96935.00;;;8.34;100.00
57606;BME280;43430;48.204;11.556;2022-10-28T05:00:56;96933.91;;;8.28;100.00
57606;BME280;43430;48.204;11.556;2022-10-28T05:03:21;96932.28;;;8.27;100.00
57606;BME280;43430;48.204;11.556;2022-10-28T05:05:46;96938.00;;;8.31;100.00
57606;BME280;43430;48.204;11.556;2022-10-28T05:08:12;96924.84;;;8.31;100.00
57606;BME280;43430;48.204;11.556;2022-10-28T05:10:38;96920.25;;;8.33;100.00
57606;BME280;43430;48.204;11.556;2022-10-28T05:13:03;96916.31;;;8.29;100.00
57606;BME280;43430;48.204;11.556;2022-10-28T05:15:28;96923.97;;;8.24;100.00
57606;BME280;43430;48.204;11.556;2022-10-28T05:17:55;96920.31;;;8.25;100.00
57606;BME280;43430;48.204;11.556;2022-10-28T05:20:20;96915.72;;;8.27;100.00
57606;BME280;43430;48.204;11.556;2022-10-28T05:22:47;96922.69;;;8.20;100.00
57606;BME280;43430;48.204;11.556;2022-10-28T05:25:14;96922.06;;;8.18;100.00
57606;BME280;43430;48.204;11.556;2022-10-28T05:27:39;96912.09;;;8.13;100.00
57606;BME280;43430;48.204;11.556;2022-10-28T05:30:05;96910.75;;;8.17;100.00
57606;BME280;43430;48.204;11.556;2022-10-28T05:32:31;96908.56;;;8.21;100.00
57606;BME280;43430;48.204;11.556;2022-10-28T05:34:56;96907.38;;;8.23;100.00
57606;BME280;43430;48.204;11.556;2022-10-28T05:37:22;96909.28;;;8.15;100.00
57606;BME280;43430;48.204;11.556;2022-10-28T05:39:47;96909.13;;;8.16;100.00
57606;BME280;43430;48.204;11.556;2022-10-28T05:42:12;96914.38;;;8.16;100.00
57606;BME280;43430;48.204;11.556;2022-10-28T05:44:37;96918.16;;;8.14;100.00
57606;BME280;43430;48.204;11.556;2022-10-28T05:47:03;96917.88;;;8.08;100.00
57606;BME280;43430;48.204;11.556;2022-10-28T05:49:28;96925.78;;;8.08;100.00
57606;BME280;43430;48.204;11.556;2022-10-28T05:51:53;96919.78;;;8.15;100.00
57606;BME280;43430;48.204;11.556;2022-10-28T05:54:19;96918.69;;;8.24;100.00
57606;BME280;43430;48.204;11.556;2022-10-28T05:56:45;96924.97;;;8.23;100.00
57606;BME280;43430;48.204;11.556;2022-10-28T05:59:10;96924.88;;;8.16;100.00
57606;BME280;43430;48.204;11.556;2022-10-28T06:01:35;96927.16;;;8.19;100.00
57606;BME280;43430;48.204;11.556;2022-10-28T06:04:01;96938.81;;;8.17;100.00
57606;BME280;43430;48.204;11.556;2022-10-28T06:06:27;96941.34;;;8.25;100.00
57606;BME280;43430;48.204;11.556;2022-10-28T06:08:52;96944.50;;;8.35;100.00
57606;BME280;43430;48.204;11.556;2022-10-28T06:11:17;96944.06;;;8.46;100.00
57606;BME280;43430;48.204;11.556;2022-10-28T06:13:43;96943.31;;;8.52;100.00
57606;BME280;43430;48.204;11.556;2022-10-28T06:16:08;96941.06;;;8.49;100.00
57606;BME280;43430;48.204;11.556;2022-10-28T06:18:33;96943.31;;;8.52;100.00
57606;BME280;43430;48.204;11.556;2022-10-28T06:20:59;96948.66;;;8.59;100.00
57606;BME280;43430;48.204;11.556;2022-10-28T06:23:26;96949.53;;;8.66;100.00
57606;BME280;43430;48.204;11.556;2022-10-28T06:25:59;96950.00;;;8.70;100.00
57606;BME280;43430;48.204;11.556;2022-10-28T06:28:25;96937.91;;;8.75;100.00
57606;BME280;43430;48.204;11.556;2022-10-28T06:30:50;96939.38;;;8.78;100.00
57606;BME280;43430;48.204;11.556;2022-10-28T06:33:16;96947.78;;;8.88;100.00
57606;BME280;43430;48.204;11.556;2022-10-28T06:35:42;96948.16;;;8.85;100.00
57606;BME280;43430;48.204;11.556;2022-10-28T06:38:07;96945.16;;;8.88;100.00
57606;BME280;43430;48.204;11.556;2022-10-28T06:40:32;96943.94;;;8.91;100.00
57606;BME280;43430;48.204;11.556;2022-10-28T06:43:03;96933.09;;;9.00;100.00
57606;BME280;43430;48.204;11.556;2022-10-28T06:45:31;96927.91;;;9.07;100.00
57606;BME280;43430;48.204;11.556;2022-10-28T06:47:58;96937.25;;;9.10;100.00
57606;BME280;43430;48.204;11.556;2022-10-28T06:50:24;96939.19;;;9.01;100.00
57606;BME280;43430;48.204;11.556;2022-10-28T06:52:50;96938.75;;;8.97;100.00
57606;BME280;43430;48.204;11.556;2022-10-28T06:55:16;96941.00;;;9.00;100.00
57606;BME280;43430;48.204;11.556;2022-10-28T06:57:41;96940.47;;;9.05;100.00
57606;BME280;43430;48.204;11.556;2022-10-28T07:00:07;96949.72;;;9.22;100.00
57606;BME280;43430;48.204;11.556;2022-10-28T07:02:32;96953.50;;;9.41;100.00
57606;BME280;43430;48.204;11.556;2022-10-28T07:04:58;96945.78;;;9.61;100.00
57606;BME280;43430;48.204;11.556;2022-10-28T07:07:23;96939.38;;;9.77;100.00
57606;BME280;43430;48.204;11.556;2022-10-28T07:09:48;96938.06;;;9.88;100.00
57606;BME280;43430;48.204;11.556;2022-10-28T07:12:14;96932.03;;;10.01;100.00
57606;BME280;43430;48.204;11.556;2022-10-28T07:14:39;96936.16;;;10.10;100.00
57606;BME280;43430;48.204;11.556;2022-10-28T07:17:04;96933.75;;;10.21;100.00
57606;BME280;43430;48.204;11.556;2022-10-28T07:19:30;96931.44;;;10.33;100.00
57606;BME280;43430;48.204;11.556;2022-10-28T07:21:55;96940.78;;;10.42;100.00
57606;BME280;43430;48.204;11.556;2022-10-28T07:24:20;96941.47;;;10.58;100.00
57606;BME280;43430;48.204;11.556;2022-10-28T07:26:47;96946.56;;;10.66;100.00
57606;BME280;43430;48.204;11.556;2022-10-28T07:29:13;96938.69;;;10.79;100.00
57606;BME280;43430;48.204;11.556;2022-10-28T07:31:39;96933.22;;;10.94;100.00
57606;BME280;43430;48.204;11.556;2022-10-28T07:34:04;96936.09;;;11.06;100.00
57606;BME280;43430;48.204;11.556;2022-10-28T07:36:30;96930.44;;;11.22;100.00
57606;BME280;43430;48.204;11.556;2022-10-28T07:38:55;96925.16;;;11.42;100.00
57606;BME280;43430;48.204;11.556;2022-10-28T07:41:20;96930.84;;;11.65;100.00
57606;BME280;43430;48.204;11.556;2022-10-28T07:43:46;96921.88;;;11.86;100.00
57606;BME280;43430;48.204;11.556;2022-10-28T07:46:12;96919.00;;;12.08;100.00
57606;BME280;43430;48.204;11.556;2022-10-28T07:48:38;96916.50;;;12.26;100.00
57606;BME280;43430;48.204;11.556;2022-10-28T07:51:05;96908.13;;;12.43;100.00
57606;BME280;43430;48.204;11.556;2022-10-28T07:53:30;96901.72;;;12.57;100.00
57606;BME280;43430;48.204;11.556;2022-10-28T07:55:58;96893.72;;;12.70;100.00
57606;BME280;43430;48.204;11.556;2022-10-28T07:58:24;96891.16;;;12.89;100.00
57606;BME280;43430;48.204;11.556;2022-10-28T08:00:49;96886.31;;;13.11;100.00
57606;BME280;43430;48.204;11.556;2022-10-28T08:03:15;96887.81;;;13.32;100.00
57606;BME280;43430;48.204;11.556;2022-10-28T08:05:40;96880.13;;;13.48;100.00
57606;BME280;43430;48.204;11.556;2022-10-28T08:08:06;96879.38;;;13.66;100.00
57606;BME280;43430;48.204;11.556;2022-10-28T08:10:32;96879.22;;;13.80;100.00
57606;BME280;43430;48.204;11.556;2022-10-28T08:12:57;96882.47;;;14.00;100.00
57606;BME280;43430;48.204;11.556;2022-10-28T08:15:25;96887.00;;;14.18;100.00
57606;BME280;43430;48.204;11.556;2022-10-28T08:17:51;96880.72;;;14.31;100.00
57606;BME280;43430;48.204;11.556;2022-10-28T08:20:17;96871.19;;;14.41;100.00
57606;BME280;43430;48.204;11.556;2022-10-28T08:22:42;96871.09;;;14.48;100.00
57606;BME280;43430;48.204;11.556;2022-10-28T08:25:08;96867.41;;;14.67;100.00
57606;BME280;43430;48.204;11.556;2022-10-28T08:27:33;96865.00;;;14.66;100.00
57606;BME280;43430;48.204;11.556;2022-10-28T08:29:58;96866.28;;;14.75;100.00
57606;BME280;43430;48.204;11.556;2022-10-28T08:32:24;96860.88;;;14.82;100.00
57606;BME280;43430;48.204;11.556;2022-10-28T08:34:49;96868.16;;;14.86;100.00
57606;BME280;43430;48.204;11.556;2022-10-28T08:37:14;96865.28;;;14.88;100.00
57606;BME280;43430;48.204;11.556;2022-10-28T08:39:40;96870.97;;;15.03;100.00
57606;BME280;43430;48.204;11.556;2022-10-28T08:50:54;96863.97;;;15.32;100.00
57606;BME280;43430;48.204;11.556;2022-10-28T08:53:26;96847.69;;;15.29;100.00
57606;BME280;43430;48.204;11.556;2022-10-28T08:55:53;96856.91;;;15.26;100.00
57606;BME280;43430;48.204;11.556;2022-10-28T08:58:31;96855.66;;;15.29;100.00
57606;BME280;43430;48.204;11.556;2022-10-28T09:00:59;96854.25;;;15.38;100.00
57606;BME280;43430;48.204;11.556;2022-10-28T09:03:25;96861.09;;;15.46;100.00
57606;BME280;43430;48.204;11.556;2022-10-28T09:06:07;96862.38;;;15.43;100.00
57606;BME280;43430;48.204;11.556;2022-10-28T09:08:37;96858.69;;;15.56;100.00
57606;BME280;43430;48.204;11.556;2022-10-28T09:16:14;96860.28;;;15.57;100.00
57606;BME280;43430;48.204;11.556;2022-10-28T09:18:50;96856.47;;;15.64;100.00
57606;BME280;43430;48.204;11.556;2022-10-28T09:21:22;96859.75;;;15.66;100.00
57606;BME280;43430;48.204;11.556;2022-10-28T09:23:57;96852.00;;;15.77;100.00
57606;BME280;43430;48.204;11.556;2022-10-28T09:26:26;96844.25;;;15.87;100.00
57606;BME280;43430;48.204;11.556;2022-10-28T09:29:15;96852.78;;;15.89;100.00
57606;BME280;43430;48.204;11.556;2022-10-28T09:31:50;96846.31;;;15.97;100.00
57606;BME280;43430;48.204;11.556;2022-10-28T09:34:42;96843.69;;;16.13;100.00
57606;BME280;43430;48.204;11.556;2022-10-28T09:37:23;96839.84;;;16.33;100.00
57606;BME280;43430;48.204;11.556;2022-10-28T09:42:41;96834.63;;;16.67;100.00
57606;BME280;43430;48.204;11.556;2022-10-28T09:45:17;96837.72;;;16.75;100.00
57606;BME280;43430;48.204;11.556;2022-10-28T09:47:50;96842.41;;;16.85;100.00
57606;BME280;43430;48.204;11.556;2022-10-28T09:50:20;96835.25;;;17.02;100.00
57606;BME280;43430;48.204;11.556;2022-10-28T09:55:22;96832.84;;;17.18;100.00
57606;BME280;43430;48.204;11.556;2022-10-28T09:57:47;96832.28;;;17.32;100.00
57606;BME280;43430;48.204;11.556;2022-10-28T10:00:13;96830.81;;;17.42;100.00
57606;BME280;43430;48.204;11.556;2022-10-28T10:02:40;96822.72;;;17.53;100.00
57606;BME280;43430;48.204;11.556;2022-10-28T10:05:12;96823.91;;;17.63;100.00
57606;BME280;43430;48.204;11.556;2022-10-28T10:07:56;96818.47;;;17.74;100.00
57606;BME280;43430;48.204;11.556;2022-10-28T10:10:26;96822.00;;;18.19;100.00
57606;BME280;43430;48.204;11.556;2022-10-28T10:12:56;96817.00;;;18.49;100.00
57606;BME280;43430;48.204;11.556;2022-10-28T10:15:29;96811.63;;;18.71;100.00
57606;BME280;43430;48.204;11.556;2022-10-28T10:17:59;96811.38;;;18.73;100.00
57606;BME280;43430;48.204;11.556;2022-10-28T10:20:26;96811.78;;;18.65;100.00
57606;BME280;43430;48.204;11.556;2022-10-28T10:22:51;96805.91;;;18.63;100.00
57606;BME280;43430;48.204;11.556;2022-10-28T10:27:52;96813.88;;;18.85;100.00
57606;BME280;43430;48.204;11.556;2022-10-28T10:30:24;96816.94;;;18.98;100.00
57606;BME280;43430;48.204;11.556;2022-10-28T10:33:33;96819.53;;;19.20;100.00
57606;BME280;43430;48.204;11.556;2022-10-28T10:36:20;96815.66;;;19.38;100.00
57606;BME280;43430;48.204;11.556;2022-10-28T10:39:19;96806.13;;;19.58;100.00
57606;BME280;43430;48.204;11.556;2022-10-28T10:42:14;96803.38;;;19.85;100.00
57606;BME280;43430;48.204;11.556;2022-10-28T10:48:14;96800.06;;;20.25;100.00
57606;BME280;43430;48.204;11.556;2022-10-28T10:51:07;96798.81;;;20.48;100.00
57606;BME280;43430;48.204;11.556;2022-10-28T10:53:55;96787.31;;;20.53;99.12
57606;BME280;43430;48.204;11.556;2022-10-28T10:56:41;96790.53;;;20.60;100.00
57606;BME280;43430;48.204;11.556;2022-10-28T10:59:28;96780.91;;;20.69;96.36
57606;BME280;43430;48.204;11.556;2022-10-28T11:02:35;96780.88;;;20.54;96.39
57606;BME280;43430;48.204;11.556;2022-10-28T11:05:21;96774.94;;;20.47;98.96
57606;BME280;43430;48.204;11.556;2022-10-28T11:08:25;96777.63;;;20.47;100.00
57606;BME280;43430;48.204;11.556;2022-10-28T11:11:13;96769.63;;;20.52;92.67
57606;BME280;43430;48.204;11.556;2022-10-28T11:14:52;96763.47;;;20.56;98.85
57606;BME280;43430;48.204;11.556;2022-10-28T11:17:22;96761.09;;;20.65;100.00
57606;BME280;43430;48.204;11.556;2022-10-28T11:20:23;96760.00;;;20.76;94.58
57606;BME280;43430;48.204;11.556;2022-10-28T11:26:16;96750.06;;;21.02;82.95
57606;BME280;43430;48.204;11.556;2022-10-28T11:29:14;96736.09;;;21.26;74.50
57606;BME280;43430;48.204;11.556;2022-10-28T11:32:11;96747.38;;;21.23;82.00
57606;BME280;43430;48.204;11.556;2022-10-28T11:41:06;96742.84;;;21.08;89.70
57606;BME280;43430;48.204;11.556;2022-10-28T11:43:54;96741.75;;;21.19;90.88
57606;BME280;43430;48.204;11.556;2022-10-28T11:46:54;96739.34;;;21.18;96.34
57606;BME280;43430;48.204;11.556;2022-10-28T11:49:54;96738.53;;;21.38;91.34
57606;BME280;43430;48.204;11.556;2022-10-28T11:53:10;96736.31;;;21.60;88.94
57606;BME280;43430;48.204;11.556;2022-10-28T11:56:31;96729.88;;;21.71;87.58
57606;BME280;43430;48.204;11.556;2022-10-28T12:05:19;96723.91;;;21.79;86.48
57606;BME280;43430;48.204;11.556;2022-10-28T12:14:39;96712.34;;;21.84;88.26
57606;BME280;43430;48.204;11.556;2022-10-28T12:17:42;96714.41;;;22.02;86.25
57606;BME280;43430;48.204;11.556;2022-10-28T12:20:33;96710.91;;;22.02;86.05
57606;BME280;43430;48.204;11.556;2022-10-28T12:23:19;96705.06;;;21.90;86.96
57606;BME280;43430;48.204;11.556;2022-10-28T12:26:07;96702.94;;;21.87;88.42
57606;BME280;43430;48.204;11.556;2022-10-28T12:28:48;96708.34;;;21.76;91.23
57606;BME280;43430;48.204;11.556;2022-10-28T12:31:27;96698.66;;;21.80;88.56
57606;BME280;43430;48.204;11.556;2022-10-28T12:33:57;96692.44;;;21.90;88.46
57606;BME280;43430;48.204;11.556;2022-10-28T12:36:36;96697.22;;;22.03;84.81
57606;BME280;43430;48.204;11.556;2022-10-28T12:39:21;96693.69;;;22.13;88.16
57606;BME280;43430;48.204;11.556;2022-10-28T12:44:23;96689.03;;;22.63;87.37
57606;BME280;43430;48.204;11.556;2022-10-28T12:47:04;96693.25;;;22.74;90.23
57606;BME280;43430;48.204;11.556;2022-10-28T12:49:38;96688.97;;;22.73;90.16
57606;BME280;43430;48.204;11.556;2022-10-28T12:52:29;96691.94;;;22.72;82.10
57606;BME280;43430;48.204;11.556;2022-10-28T12:55:06;96685.09;;;22.85;78.89
57606;BME280;43430;48.204;11.556;2022-10-28T12:57:43;96678.59;;;22.96;78.83
57606;BME280;43430;48.204;11.556;2022-10-28T13:02:42;96689.75;;;23.08;84.76
57606;BME280;43430;48.204;11.556;2022-10-28T13:05:23;96680.38;;;23.06;85.24
57606;BME280;43430;48.204;11.556;2022-10-28T13:10:37;96676.94;;;23.24;89.80
57606;BME280;43430;48.204;11.556;2022-10-28T13:13:33;96674.50;;;23.28;88.81
57606;BME280;43430;48.204;11.556;2022-10-28T13:24:57;96673.28;;;23.39;98.73
57606;BME280;43430;48.204;11.556;2022-10-28T13:27:24;96674.53;;;23.46;95.75
57606;BME280;43430;48.204;11.556;2022-10-28T13:29:55;96673.75;;;23.46;93.54
57606;BME280;43430;48.204;11.556;2022-10-28T13:34:53;96669.09;;;23.28;99.24
57606;BME280;43430;48.204;11.556;2022-10-28T13:37:22;96671.84;;;23.22;100.00
57606;BME280;43430;48.204;11.556;2022-10-28T13:39:48;96670.00;;;23.18;100.00
57606;BME280;43430;48.204;11.556;2022-10-28T13:44:55;96673.00;;;23.16;99.13
57606;BME280;43430;48.204;11.556;2022-10-28T13:47:27;96679.22;;;23.12;99.51
57606;BME280;43430;48.204;11.556;2022-10-28T13:52:31;96671.81;;;22.98;100.00
57606;BME280;43430;48.204;11.556;2022-10-28T13:54:57;96672.63;;;22.99;100.00
57606;BME280;43430;48.204;11.556;2022-10-28T13:57:35;96683.81;;;22.77;100.00
57606;BME280;43430;48.204;11.556;2022-10-28T14:05:18;96679.28;;;22.72;100.00
57606;BME280;43430;48.204;11.556;2022-10-28T14:08:04;96685.25;;;22.69;100.00
57606;BME280;43430;48.204;11.556;2022-10-28T14:10:37;96689.91;;;22.59;100.00
57606;BME280;43430;48.204;11.556;2022-10-28T14:13:18;96677.88;;;22.51;100.00
57606;BME280;43430;48.204;11.556;2022-10-28T14:15:45;96681.84;;;22.59;100.00
57606;BME280;43430;48.204;11.556;2022-10-28T14:20:40;96687.53;;;22.52;99.69
57606;BME280;43430;48.204;11.556;2022-10-28T14:38:46;96692.69;;;22.43;100.00
57606;BME280;43430;48.204;11.556;2022-10-28T14:41:25;96673.63;;;22.40;100.00
57606;BME280;43430;48.204;11.556;2022-10-28T14:49:20;96676.78;;;22.08;100.00
57606;BME280;43430;48.204;11.556;2022-10-28T14:51:49;96688.91;;;22.00;100.00
57606;BME280;43430;48.204;11.556;2022-10-28T14:54:27;96682.53;;;21.86;100.00
57606;BME280;43430;48.204;11.556;2022-10-28T14:56:54;96684.25;;;21.66;100.00
57606;BME280;43430;48.204;11.556;2022-10-28T14:59:30;96683.78;;;21.44;100.00
57606;BME280;43430;48.204;11.556;2022-10-28T15:02:07;96686.50;;;21.33;100.00
57606;BME280;43430;48.204;11.556;2022-10-28T15:04:36;96678.47;;;21.23;100.00
57606;BME280;43430;48.204;11.556;2022-10-28T15:07:02;96676.88;;;21.17;100.00
57606;BME280;43430;48.204;11.556;2022-10-28T15:09:30;96681.97;;;21.14;100.00
57606;BME280;43430;48.204;11.556;2022-10-28T15:12:02;96684.38;;;21.05;100.00
57606;BME280;43430;48.204;11.556;2022-10-28T15:14:38;96684.38;;;21.10;100.00
57606;BME280;43430;48.204;11.556;2022-10-28T15:17:13;96692.69;;;21.08;100.00
57606;BME280;43430;48.204;11.556;2022-10-28T15:19:40;96684.13;;;21.06;100.00